createdAt,value
2022-10-01T00:00:00.641Z,10.68
2022-10-01T00:01:00.742Z,10.64
2022-10-01T00:02:00.911Z,10.61
2022-10-01T00:03:01.062Z,10.58
2022-10-01T00:04:01.111Z,10.56
2022-10-01T00:05:01.211Z,10.53
2022-10-01T00:06:01.334Z,10.50
2022-10-01T00:07:01.440Z,10.47
2022-10-01T00:08:01.532Z,10.43
2022-10-01T00:09:01.711Z,10.40
2022-10-01T00:10:01.821Z,10.37
2022-10-01T00:11:01.969Z,10.33
2022-10-01T00:12:02.071Z,10.30
2022-10-01T00:13:02.142Z,10.27
2022-10-01T00:14:02.268Z,10.24
2022-10-01T00:15:05.904Z,10.22
2022-10-01T00:16:02.516Z,10.18
2022-10-01T00:17:02.700Z,10.16
2022-10-01T00:18:02.789Z,10.14
2022-10-01T00:19:02.928Z,10.12
2022-10-01T00:20:10.548Z,10.10
2022-10-01T00:21:04.193Z,10.08
2022-10-01T00:22:03.362Z,10.06
2022-10-01T00:23:03.437Z,10.05
2022-10-01T00:24:03.567Z,10.03
2022-10-01T00:25:03.727Z,10.01
2022-10-01T00:26:03.836Z,10.00
2022-10-01T00:27:03.966Z,9.99
2022-10-01T00:28:04.101Z,9.98
2022-10-01T00:29:04.271Z,9.96
2022-10-01T00:30:04.295Z,9.94
2022-10-01T00:31:04.445Z,9.93
2022-10-01T00:32:04.543Z,9.91
2022-10-01T00:33:04.645Z,9.90
2022-10-01T00:34:04.727Z,9.88
2022-10-01T00:35:04.905Z,9.86
2022-10-01T00:36:04.944Z,9.85
2022-10-01T00:37:05.095Z,9.84
2022-10-01T00:38:05.166Z,9.83
2022-10-01T00:39:05.263Z,9.82
2022-10-01T00:40:05.395Z,9.81
2022-10-01T00:41:05.517Z,9.81
2022-10-01T00:42:05.647Z,9.80
2022-10-01T00:43:05.733Z,9.80
2022-10-01T00:44:05.830Z,9.79
2022-10-01T00:45:05.932Z,9.79
2022-10-01T00:46:06.106Z,9.79
2022-10-01T00:47:06.191Z,9.78
2022-10-01T00:48:06.349Z,9.77
2022-10-01T00:49:06.371Z,9.76
2022-10-01T00:50:06.501Z,9.76
2022-10-01T00:51:06.602Z,9.75
2022-10-01T00:52:06.784Z,9.74
2022-10-01T00:53:06.811Z,9.74
2022-10-01T00:54:06.924Z,9.74
2022-10-01T00:55:07.038Z,9.73
2022-10-01T00:56:07.168Z,9.72
2022-10-01T00:57:07.313Z,9.72
2022-10-01T00:58:07.370Z,9.72
2022-10-01T00:59:07.470Z,9.72
2022-10-01T01:00:07.607Z,9.72
2022-10-01T01:01:07.755Z,9.72
2022-10-01T01:02:07.880Z,9.72
2022-10-01T01:03:07.957Z,9.73
2022-10-01T01:04:08.042Z,9.73
2022-10-01T01:05:08.168Z,9.73
2022-10-01T01:06:08.278Z,9.73
2022-10-01T01:07:08.409Z,9.73
2022-10-01T01:08:08.541Z,9.74
2022-10-01T01:09:08.655Z,9.74
2022-10-01T01:10:08.756Z,9.74
2022-10-01T01:11:08.864Z,9.75
2022-10-01T01:12:09.046Z,9.75
2022-10-01T01:13:09.092Z,9.75
2022-10-01T01:14:09.214Z,9.75
2022-10-01T01:15:09.312Z,9.74
2022-10-01T01:16:09.462Z,9.74
2022-10-01T01:17:09.659Z,9.73
2022-10-01T01:18:09.656Z,9.73
2022-10-01T01:19:09.776Z,9.73
2022-10-01T01:20:09.888Z,9.74
2022-10-01T01:21:10.014Z,9.74
2022-10-01T01:22:10.155Z,9.73
2022-10-01T01:23:10.228Z,9.74
2022-10-01T01:24:10.343Z,9.74
2022-10-01T01:25:10.459Z,9.74
2022-10-01T01:26:10.552Z,9.74
2022-10-01T01:27:10.702Z,9.75
2022-10-01T01:28:10.791Z,9.75
2022-10-01T01:29:10.883Z,9.74
2022-10-01T01:30:11.001Z,9.74
2022-10-01T01:31:11.143Z,9.73
2022-10-01T01:32:14.660Z,9.73
2022-10-01T01:33:11.350Z,9.72
2022-10-01T01:34:11.452Z,9.72
2022-10-01T01:35:11.577Z,9.72
2022-10-01T01:36:11.679Z,9.71
2022-10-01T01:37:11.817Z,9.71
2022-10-01T01:38:11.890Z,9.69
2022-10-01T01:39:12.024Z,9.69
2022-10-01T01:40:12.119Z,9.68
2022-10-01T01:41:12.238Z,9.68
2022-10-01T01:42:12.368Z,9.68
2022-10-01T01:43:12.465Z,9.68
2022-10-01T01:44:12.585Z,9.67
2022-10-01T01:45:12.714Z,9.67
2022-10-01T01:46:12.898Z,9.66
2022-10-01T01:47:12.975Z,9.66
2022-10-01T01:48:13.045Z,9.66
2022-10-01T01:49:13.167Z,9.66
2022-10-01T01:50:13.236Z,9.66
2022-10-01T01:51:13.356Z,9.67
2022-10-01T01:52:13.564Z,9.68
2022-10-01T01:53:13.583Z,9.68
2022-10-01T01:54:13.686Z,9.69
2022-10-01T01:55:13.796Z,9.69
2022-10-01T01:56:13.936Z,9.68
2022-10-01T01:57:14.076Z,9.68
2022-10-01T01:58:14.219Z,9.67
2022-10-01T01:59:14.273Z,9.67
2022-10-01T02:00:14.387Z,9.67
2022-10-01T02:01:14.519Z,9.67
2022-10-01T02:02:14.795Z,9.68
2022-10-01T02:03:14.734Z,9.68
2022-10-01T02:04:14.815Z,9.68
2022-10-01T02:05:14.943Z,9.68
2022-10-01T02:06:15.050Z,9.69
2022-10-01T02:07:15.193Z,9.70
2022-10-01T02:08:15.253Z,9.71
2022-10-01T02:09:15.390Z,9.71
2022-10-01T02:10:15.484Z,9.71
2022-10-01T02:11:15.630Z,9.71
2022-10-01T02:12:15.781Z,9.70
2022-10-01T02:13:15.840Z,9.70
2022-10-01T02:14:15.931Z,9.71
2022-10-01T02:15:16.042Z,9.71
2022-10-01T02:16:16.212Z,9.72
2022-10-01T02:17:16.299Z,9.72
2022-10-01T02:18:16.369Z,9.72
2022-10-01T02:19:16.529Z,9.72
2022-10-01T02:20:16.574Z,9.72
2022-10-01T02:21:16.684Z,9.72
2022-10-01T02:22:16.828Z,9.73
2022-10-01T02:23:16.910Z,9.73
2022-10-01T02:24:17.022Z,9.72
2022-10-01T02:25:17.131Z,9.71
2022-10-01T02:26:17.248Z,9.71
2022-10-01T02:27:17.487Z,9.70
2022-10-01T02:28:17.537Z,9.70
2022-10-01T02:29:17.564Z,9.69
2022-10-01T02:30:17.655Z,9.68
2022-10-01T02:31:17.977Z,9.67
2022-10-01T02:32:17.916Z,9.66
2022-10-01T02:33:18.026Z,9.65
2022-10-01T02:34:20.251Z,9.65
2022-10-01T02:35:18.213Z,9.64
2022-10-01T02:36:18.327Z,9.65
2022-10-01T02:37:18.520Z,9.65
2022-10-01T02:38:18.544Z,9.66
2022-10-01T02:39:18.668Z,9.66
2022-10-01T02:40:18.765Z,9.66
2022-10-01T02:41:18.865Z,9.66
2022-10-01T02:42:19.004Z,9.66
2022-10-01T02:43:19.135Z,9.67
2022-10-01T02:44:19.222Z,9.67
2022-10-01T02:45:19.342Z,9.67
2022-10-01T02:46:19.502Z,9.67
2022-10-01T02:47:19.626Z,9.67
2022-10-01T02:48:19.662Z,9.67
2022-10-01T02:49:19.766Z,9.67
2022-10-01T02:50:19.891Z,9.68
2022-10-01T02:51:20.000Z,9.68
2022-10-01T02:52:20.221Z,9.67
2022-10-01T02:53:20.235Z,9.67
2022-10-01T02:54:20.326Z,9.66
2022-10-01T02:55:20.431Z,9.67
2022-10-01T02:56:20.559Z,9.66
2022-10-01T02:57:20.693Z,9.66
2022-10-01T02:58:20.801Z,9.65
2022-10-01T02:59:20.901Z,9.65
2022-10-01T03:00:21.019Z,9.65
2022-10-01T03:01:21.214Z,9.65
2022-10-01T03:02:21.367Z,9.65
2022-10-01T03:03:21.396Z,9.65
2022-10-01T03:04:21.468Z,9.65
2022-10-01T03:05:21.569Z,9.66
2022-10-01T03:06:21.702Z,9.66
2022-10-01T03:07:21.928Z,9.67
2022-10-01T03:08:22.857Z,9.67
2022-10-01T03:09:22.125Z,9.67
2022-10-01T03:10:22.142Z,9.68
2022-10-01T03:11:22.247Z,9.68
2022-10-01T03:12:22.387Z,9.69
2022-10-01T03:13:22.487Z,9.69
2022-10-01T03:14:22.607Z,9.69
2022-10-01T03:15:22.746Z,9.69
2022-10-01T03:16:22.905Z,9.69
2022-10-01T03:17:23.004Z,9.70
2022-10-01T03:18:23.116Z,9.70
2022-10-01T03:19:23.225Z,9.71
2022-10-01T03:20:23.339Z,9.72
2022-10-01T03:21:23.467Z,9.73
2022-10-01T03:22:23.604Z,9.74
2022-10-01T03:23:23.686Z,9.76
2022-10-01T03:24:23.784Z,9.77
2022-10-01T03:25:23.893Z,9.78
2022-10-01T03:26:24.014Z,9.80
2022-10-01T03:27:24.155Z,9.81
2022-10-01T03:28:24.296Z,9.82
2022-10-01T03:29:24.313Z,9.83
2022-10-01T03:30:24.432Z,9.84
2022-10-01T03:31:24.606Z,9.86
2022-10-01T03:32:24.703Z,9.86
2022-10-01T03:33:24.771Z,9.87
2022-10-01T03:34:24.887Z,9.88
2022-10-01T03:35:25.020Z,9.88
2022-10-01T03:36:25.112Z,9.88
2022-10-01T03:37:25.297Z,9.89
2022-10-01T03:38:25.346Z,9.89
2022-10-01T03:39:25.441Z,9.89
2022-10-01T03:40:25.561Z,9.89
2022-10-01T03:41:25.659Z,9.89
2022-10-01T03:42:25.812Z,9.89
2022-10-01T03:43:25.888Z,9.90
2022-10-01T03:44:25.989Z,9.90
2022-10-01T03:45:26.167Z,9.90
2022-10-01T03:46:26.209Z,9.90
2022-10-01T03:47:26.337Z,9.90
2022-10-01T03:48:26.428Z,9.90
2022-10-01T03:49:26.546Z,9.91
2022-10-01T03:50:26.718Z,9.91
2022-10-01T03:51:26.757Z,9.92
2022-10-01T03:52:26.908Z,9.92
2022-10-01T03:53:26.977Z,9.93
2022-10-01T03:54:27.086Z,9.94
2022-10-01T03:55:27.187Z,9.95
2022-10-01T03:56:27.299Z,9.95
2022-10-01T03:57:27.436Z,9.95
2022-10-01T03:58:27.537Z,9.95
2022-10-01T03:59:27.639Z,9.96
2022-10-01T04:00:27.745Z,9.96
2022-10-01T04:01:27.972Z,9.96
2022-10-01T04:02:28.157Z,9.97
2022-10-01T04:03:28.115Z,9.97
2022-10-01T04:04:28.225Z,9.97
2022-10-01T04:05:28.355Z,9.97
2022-10-01T04:06:28.504Z,9.98
2022-10-01T04:07:28.584Z,9.98
2022-10-01T04:08:28.692Z,9.99
2022-10-01T04:09:28.789Z,9.99
2022-10-01T04:10:28.896Z,10.00
2022-10-01T04:11:29.073Z,10.01
2022-10-01T04:12:29.152Z,10.02
2022-10-01T04:13:29.302Z,10.03
2022-10-01T04:14:29.441Z,10.04
2022-10-01T04:15:29.588Z,10.04
2022-10-01T04:16:29.828Z,10.05
2022-10-01T04:17:29.873Z,10.05
2022-10-01T04:18:29.967Z,10.06
2022-10-01T04:19:30.103Z,10.07
2022-10-01T04:20:30.240Z,10.08
2022-10-01T04:21:30.426Z,10.09
2022-10-01T04:22:30.553Z,10.10
2022-10-01T04:23:30.640Z,10.10
2022-10-01T04:24:30.762Z,10.10
2022-10-01T04:25:30.905Z,10.10
2022-10-01T04:26:31.113Z,10.10
2022-10-01T04:27:31.176Z,10.10
2022-10-01T04:28:31.348Z,10.10
2022-10-01T04:29:31.368Z,10.11
2022-10-01T04:30:31.500Z,10.11
2022-10-01T04:31:32.038Z,10.11
2022-10-01T04:32:31.769Z,10.12
2022-10-01T04:33:31.918Z,10.13
2022-10-01T04:34:32.052Z,10.14
2022-10-01T04:35:32.148Z,10.14
2022-10-01T04:36:32.485Z,10.15
2022-10-01T04:37:32.446Z,10.15
2022-10-01T04:38:32.526Z,10.16
2022-10-01T04:39:32.688Z,10.17
2022-10-01T04:40:32.786Z,10.18
2022-10-01T04:41:33.470Z,10.19
2022-10-01T04:42:33.035Z,10.20
2022-10-01T04:43:33.175Z,10.20
2022-10-01T04:44:33.322Z,10.22
2022-10-01T04:45:33.487Z,10.23
2022-10-01T04:46:33.637Z,10.24
2022-10-01T04:47:37.514Z,10.25
2022-10-01T04:48:33.823Z,10.25
2022-10-01T04:49:33.963Z,10.26
2022-10-01T04:50:34.091Z,10.26
2022-10-01T04:51:34.525Z,10.27
2022-10-01T04:52:34.353Z,10.28
2022-10-01T04:53:34.480Z,10.29
2022-10-01T04:54:34.603Z,10.30
2022-10-01T04:55:34.736Z,10.30
2022-10-01T04:56:34.922Z,10.30
2022-10-01T04:57:35.025Z,10.31
2022-10-01T04:58:35.120Z,10.31
2022-10-01T04:59:35.217Z,10.32
2022-10-01T05:00:35.385Z,10.32
2022-10-01T05:01:36.029Z,10.33
2022-10-01T05:02:35.724Z,10.34
2022-10-01T05:03:35.743Z,10.35
2022-10-01T05:04:35.870Z,10.37
2022-10-01T05:05:36.008Z,10.38
2022-10-01T05:06:36.251Z,10.39
2022-10-01T05:07:36.297Z,10.41
2022-10-01T05:08:36.387Z,10.42
2022-10-01T05:09:36.538Z,10.43
2022-10-01T05:10:36.667Z,10.44
2022-10-01T05:11:37.036Z,10.46
2022-10-01T05:12:36.935Z,10.48
2022-10-01T05:13:37.077Z,10.49
2022-10-01T05:14:37.206Z,10.51
2022-10-01T05:15:37.368Z,10.52
2022-10-01T05:16:37.524Z,10.52
2022-10-01T05:17:37.588Z,10.52
2022-10-01T05:18:37.710Z,10.53
2022-10-01T05:19:37.855Z,10.53
2022-10-01T05:20:37.976Z,10.53
2022-10-01T05:21:39.065Z,10.54
2022-10-01T05:22:38.208Z,10.54
2022-10-01T05:23:38.335Z,10.54
2022-10-01T05:24:38.464Z,10.54
2022-10-01T05:25:38.644Z,10.54
2022-10-01T05:26:38.715Z,10.54
2022-10-01T05:27:38.845Z,10.55
2022-10-01T05:28:39.982Z,10.55
2022-10-01T05:29:39.130Z,10.55
2022-10-01T05:30:39.293Z,10.56
2022-10-01T05:31:39.766Z,10.57
2022-10-01T05:32:39.503Z,10.57
2022-10-01T05:33:39.663Z,10.58
2022-10-01T05:34:39.762Z,10.59
2022-10-01T05:35:39.930Z,10.59
2022-10-01T05:36:40.031Z,10.60
2022-10-01T05:37:40.169Z,10.60
2022-10-01T05:38:40.311Z,10.61
2022-10-01T05:39:40.460Z,10.61
2022-10-01T05:40:40.623Z,10.62
2022-10-01T05:41:40.720Z,10.63
2022-10-01T05:42:40.858Z,10.64
2022-10-01T05:43:40.979Z,10.65
2022-10-01T05:44:41.101Z,10.66
2022-10-01T05:45:41.353Z,10.66
2022-10-01T05:46:41.371Z,10.67
2022-10-01T05:47:41.524Z,10.66
2022-10-01T05:48:41.637Z,10.66
2022-10-01T05:49:41.769Z,10.66
2022-10-01T05:50:41.923Z,10.65
2022-10-01T05:51:42.057Z,10.65
2022-10-01T05:52:42.177Z,10.65
2022-10-01T05:53:42.491Z,10.65
2022-10-01T05:54:42.458Z,10.65
2022-10-01T05:55:42.687Z,10.65
2022-10-01T05:56:42.717Z,10.66
2022-10-01T05:57:42.865Z,10.66
2022-10-01T05:58:42.996Z,10.66
2022-10-01T05:59:43.139Z,10.66
2022-10-01T06:00:43.294Z,10.67
2022-10-01T06:01:43.456Z,10.66
2022-10-01T06:02:43.591Z,10.66
2022-10-01T06:03:43.668Z,10.65
2022-10-01T06:04:43.757Z,10.66
2022-10-01T06:05:43.935Z,10.66
2022-10-01T06:06:44.032Z,10.66
2022-10-01T06:07:44.195Z,10.67
2022-10-01T06:08:44.284Z,10.67
2022-10-01T06:09:44.414Z,10.67
2022-10-01T06:10:44.697Z,10.67
2022-10-01T06:11:44.682Z,10.68
2022-10-01T06:12:44.836Z,10.68
2022-10-01T06:13:44.931Z,10.69
2022-10-01T06:14:45.056Z,10.69
2022-10-01T06:15:45.211Z,10.70
2022-10-01T06:16:45.315Z,10.70
2022-10-01T06:17:45.477Z,10.71
2022-10-01T06:18:45.583Z,10.71
2022-10-01T06:19:45.745Z,10.71
2022-10-01T06:20:45.849Z,10.71
2022-10-01T06:21:45.931Z,10.72
2022-10-01T06:22:46.073Z,10.73
2022-10-01T06:23:46.211Z,10.74
2022-10-01T06:24:46.363Z,10.75
2022-10-01T06:25:46.550Z,10.76
2022-10-01T06:26:46.630Z,10.77
2022-10-01T06:27:46.831Z,10.79
2022-10-01T06:28:46.901Z,10.80
2022-10-01T06:29:47.028Z,10.81
2022-10-01T06:30:47.182Z,10.81
2022-10-01T06:31:47.330Z,10.82
2022-10-01T06:32:47.397Z,10.84
2022-10-01T06:33:47.487Z,10.85
2022-10-01T06:34:47.657Z,10.86
2022-10-01T06:35:47.776Z,10.88
2022-10-01T06:36:47.878Z,10.89
2022-10-01T06:37:48.006Z,10.90
2022-10-01T06:38:48.155Z,10.91
2022-10-01T06:39:48.228Z,10.93
2022-10-01T06:40:48.386Z,10.94
2022-10-01T06:41:48.491Z,10.96
2022-10-01T06:42:48.608Z,10.97
2022-10-01T06:43:48.747Z,10.98
2022-10-01T06:44:48.888Z,10.98
2022-10-01T06:45:49.129Z,11.00
2022-10-01T06:46:49.144Z,11.01
2022-10-01T06:47:49.267Z,11.02
2022-10-01T06:48:49.387Z,11.02
2022-10-01T06:49:49.514Z,11.03
2022-10-01T06:50:49.673Z,11.04
2022-10-01T06:51:49.773Z,11.04
2022-10-01T06:52:49.904Z,11.05
2022-10-01T06:53:50.033Z,11.06
2022-10-01T06:54:50.170Z,11.07
2022-10-01T06:55:50.343Z,11.09
2022-10-01T06:56:50.424Z,11.10
2022-10-01T06:57:50.552Z,11.11
2022-10-01T06:58:50.694Z,11.12
2022-10-01T06:59:50.839Z,11.14
2022-10-01T07:00:51.087Z,11.15
2022-10-01T07:01:56.086Z,11.17
2022-10-01T07:02:52.258Z,11.18
2022-10-01T07:03:51.390Z,11.18
2022-10-01T07:04:51.470Z,11.19
2022-10-01T07:05:51.641Z,11.20
2022-10-01T07:06:51.791Z,11.21
2022-10-01T07:07:51.869Z,11.22
2022-10-01T07:08:52.031Z,11.24
2022-10-01T07:09:52.110Z,11.25
2022-10-01T07:10:53.242Z,11.27
2022-10-01T07:11:52.382Z,11.28
2022-10-01T07:12:52.490Z,11.30
2022-10-01T07:13:54.708Z,11.31
2022-10-01T07:14:52.730Z,11.31
2022-10-01T07:15:53.082Z,11.32
2022-10-01T07:16:53.051Z,11.35
2022-10-01T07:17:53.137Z,11.37
2022-10-01T07:18:53.288Z,11.39
2022-10-01T07:19:53.376Z,11.42
2022-10-01T07:20:53.526Z,11.44
2022-10-01T07:21:53.658Z,11.45
2022-10-01T07:22:53.756Z,11.46
2022-10-01T07:23:53.906Z,11.47
2022-10-01T07:24:53.995Z,11.49
2022-10-01T07:25:54.185Z,11.50
2022-10-01T07:26:54.305Z,11.52
2022-10-01T07:27:54.445Z,11.54
2022-10-01T07:28:54.538Z,11.55
2022-10-01T07:29:54.706Z,11.56
2022-10-01T07:30:54.875Z,11.58
2022-10-01T07:31:54.972Z,11.60
2022-10-01T07:32:55.044Z,11.62
2022-10-01T07:33:55.204Z,11.65
2022-10-01T07:34:55.325Z,11.67
2022-10-01T07:35:55.485Z,11.69
2022-10-01T07:36:55.555Z,11.70
2022-10-01T07:37:55.686Z,11.72
2022-10-01T07:38:55.814Z,11.73
2022-10-01T07:39:55.970Z,11.74
2022-10-01T07:40:56.131Z,11.75
2022-10-01T07:41:56.251Z,11.76
2022-10-01T07:42:56.360Z,11.78
2022-10-01T07:43:56.443Z,11.79
2022-10-01T07:44:56.589Z,11.80
2022-10-01T07:45:56.766Z,11.81
2022-10-01T07:46:56.890Z,11.82
2022-10-01T07:47:57.011Z,11.85
2022-10-01T07:48:57.198Z,11.86
2022-10-01T07:49:57.254Z,11.88
2022-10-01T07:50:57.415Z,11.89
2022-10-01T07:51:57.510Z,11.91
2022-10-01T07:52:57.649Z,11.93
2022-10-01T07:53:57.783Z,11.96
2022-10-01T07:54:57.930Z,11.99
2022-10-01T07:55:58.088Z,12.02
2022-10-01T07:56:58.208Z,12.04
2022-10-01T07:57:58.318Z,12.05
2022-10-01T07:58:58.458Z,12.07
2022-10-01T07:59:58.607Z,12.09
2022-10-01T08:00:58.991Z,12.11
2022-10-01T08:01:58.890Z,12.14
2022-10-01T08:02:59.006Z,12.17
2022-10-01T08:03:59.146Z,12.19
2022-10-01T08:04:59.327Z,12.20
2022-10-01T08:05:59.418Z,12.21
2022-10-01T08:06:59.547Z,12.23
2022-10-01T08:07:59.676Z,12.25
2022-10-01T08:08:59.806Z,12.28
2022-10-01T08:09:59.946Z,12.32
2022-10-01T08:11:00.104Z,12.36
2022-10-01T08:12:00.225Z,12.39
2022-10-01T08:13:00.369Z,12.41
2022-10-01T08:14:00.489Z,12.44
2022-10-01T08:15:00.637Z,12.45
2022-10-01T08:16:00.795Z,12.47
2022-10-01T08:17:01.010Z,12.47
2022-10-01T08:18:01.034Z,12.48
2022-10-01T08:19:01.174Z,12.48
2022-10-01T08:20:01.335Z,12.48
2022-10-01T08:21:01.436Z,12.49
2022-10-01T08:22:01.565Z,12.50
2022-10-01T08:23:01.698Z,12.50
2022-10-01T08:24:01.842Z,12.51
2022-10-01T08:25:02.034Z,12.52
2022-10-01T08:26:02.135Z,12.52
2022-10-01T08:27:02.233Z,12.52
2022-10-01T08:28:02.419Z,12.52
2022-10-01T08:29:02.495Z,12.52
2022-10-01T08:30:02.643Z,12.54
2022-10-01T08:31:02.762Z,12.58
2022-10-01T08:32:03.001Z,12.62
2022-10-01T08:33:03.012Z,12.66
2022-10-01T08:34:03.181Z,12.71
2022-10-01T08:35:03.301Z,12.75
2022-10-01T08:36:03.391Z,12.76
2022-10-01T08:37:03.541Z,12.78
2022-10-01T08:38:03.681Z,12.79
2022-10-01T08:39:03.820Z,12.79
2022-10-01T08:40:04.068Z,12.80
2022-10-01T08:41:04.100Z,12.81
2022-10-01T08:42:04.241Z,12.86
2022-10-01T08:43:04.381Z,12.93
2022-10-01T08:44:04.528Z,13.00
2022-10-01T08:45:05.319Z,13.05
2022-10-01T08:46:04.864Z,13.11
2022-10-01T08:47:04.908Z,13.19
2022-10-01T08:48:05.044Z,13.26
2022-10-01T08:49:05.169Z,13.36
2022-10-01T08:50:05.338Z,13.46
2022-10-01T08:51:05.431Z,13.51
2022-10-01T08:52:05.557Z,13.52
2022-10-01T08:53:05.710Z,13.52
2022-10-01T08:54:05.782Z,13.54
2022-10-01T08:55:05.946Z,13.58
2022-10-01T08:56:06.105Z,13.62
2022-10-01T08:57:06.187Z,13.66
2022-10-01T08:58:06.326Z,13.72
2022-10-01T08:59:06.466Z,13.80
2022-10-01T09:00:06.651Z,13.83
2022-10-01T09:01:06.806Z,13.84
2022-10-01T09:02:06.857Z,13.86
2022-10-01T09:03:06.988Z,13.88
2022-10-01T09:04:07.156Z,13.88
2022-10-01T09:05:07.246Z,13.85
2022-10-01T09:06:07.366Z,13.81
2022-10-01T09:07:07.465Z,13.77
2022-10-01T09:08:07.612Z,13.75
2022-10-01T09:09:07.756Z,13.73
2022-10-01T09:10:07.921Z,13.73
2022-10-01T09:11:08.024Z,13.74
2022-10-01T09:12:08.156Z,13.79
2022-10-01T09:13:08.427Z,13.85
2022-10-01T09:14:08.424Z,13.91
2022-10-01T09:15:08.595Z,13.99
2022-10-01T09:16:08.767Z,14.09
2022-10-01T09:17:08.834Z,14.24
2022-10-01T09:18:08.994Z,14.41
2022-10-01T09:19:09.105Z,14.56
2022-10-01T09:20:09.273Z,14.63
2022-10-01T09:21:09.372Z,14.65
2022-10-01T09:22:09.534Z,14.66
2022-10-01T09:23:09.644Z,14.67
2022-10-01T09:24:09.722Z,14.67
2022-10-01T09:25:09.901Z,14.66
2022-10-01T09:26:10.542Z,14.62
2022-10-01T09:27:10.093Z,14.61
2022-10-01T09:28:10.257Z,14.64
2022-10-01T09:29:10.343Z,14.67
2022-10-01T09:30:10.624Z,14.68
2022-10-01T09:31:10.642Z,14.68
2022-10-01T09:32:10.726Z,14.70
2022-10-01T09:33:10.861Z,14.74
2022-10-01T09:34:10.989Z,14.79
2022-10-01T09:35:11.139Z,14.84
2022-10-01T09:36:11.242Z,14.88
2022-10-01T09:37:11.400Z,14.93
2022-10-01T09:38:11.485Z,14.99
2022-10-01T09:39:11.580Z,15.01
2022-10-01T09:40:11.751Z,15.00
2022-10-01T09:41:11.865Z,14.97
2022-10-01T09:42:11.960Z,14.94
2022-10-01T09:43:12.070Z,14.94
2022-10-01T09:44:15.638Z,14.97
2022-10-01T09:45:13.369Z,14.97
2022-10-01T09:46:12.525Z,14.97
2022-10-01T09:47:12.589Z,14.99
2022-10-01T09:48:12.740Z,15.04
2022-10-01T09:49:12.841Z,15.10
2022-10-01T09:50:13.005Z,15.17
2022-10-01T09:51:13.118Z,15.25
2022-10-01T09:52:13.229Z,15.33
2022-10-01T09:53:13.319Z,15.39
2022-10-01T09:54:13.454Z,15.44
2022-10-01T09:55:13.607Z,15.49
2022-10-01T09:56:13.941Z,15.50
2022-10-01T09:57:13.879Z,15.50
2022-10-01T09:58:14.021Z,15.53
2022-10-01T09:59:14.179Z,15.58
2022-10-01T10:00:14.270Z,15.66
2022-10-01T10:01:14.379Z,15.76
2022-10-01T10:02:14.529Z,15.81
2022-10-01T10:03:14.761Z,15.83
2022-10-01T10:04:19.862Z,15.80
2022-10-01T10:05:15.808Z,15.77
2022-10-01T10:06:14.990Z,15.81
2022-10-01T10:07:15.048Z,15.85
2022-10-01T10:08:15.159Z,15.82
2022-10-01T10:09:15.269Z,15.75
2022-10-01T10:10:15.418Z,15.73
2022-10-01T10:11:15.595Z,15.72
2022-10-01T10:12:15.626Z,15.68
2022-10-01T10:13:15.767Z,15.61
2022-10-01T10:14:15.897Z,15.52
2022-10-01T10:15:16.048Z,15.42
2022-10-01T10:16:16.310Z,15.33
2022-10-01T10:17:16.285Z,15.25
2022-10-01T10:18:19.262Z,15.21
2022-10-01T10:19:17.516Z,15.23
2022-10-01T10:20:16.655Z,15.30
2022-10-01T10:21:16.778Z,15.35
2022-10-01T10:22:16.882Z,15.39
2022-10-01T10:23:17.007Z,15.42
2022-10-01T10:24:17.095Z,15.44
2022-10-01T10:25:17.196Z,15.47
2022-10-01T10:26:17.345Z,15.55
2022-10-01T10:27:17.445Z,15.63
2022-10-01T10:28:17.618Z,15.68
2022-10-01T10:29:17.666Z,15.76
2022-10-01T10:30:17.832Z,15.84
2022-10-01T10:31:17.943Z,15.87
2022-10-01T10:32:18.085Z,15.90
2022-10-01T10:33:18.135Z,15.97
2022-10-01T10:34:18.236Z,16.08
2022-10-01T10:35:18.340Z,16.19
2022-10-01T10:36:18.466Z,16.29
2022-10-01T10:37:18.564Z,16.38
2022-10-01T10:38:18.670Z,16.44
2022-10-01T10:39:18.778Z,16.48
2022-10-01T10:40:18.896Z,16.49
2022-10-01T10:41:19.054Z,16.47
2022-10-01T10:42:19.187Z,16.45
2022-10-01T10:43:19.285Z,16.48
2022-10-01T10:44:19.404Z,16.49
2022-10-01T10:45:19.532Z,16.48
2022-10-01T10:46:19.702Z,16.48
2022-10-01T10:47:19.737Z,16.49
2022-10-01T10:48:19.864Z,16.52
2022-10-01T10:49:19.974Z,16.57
2022-10-01T10:50:20.073Z,16.58
2022-10-01T10:51:20.204Z,16.55
2022-10-01T10:52:20.314Z,16.44
2022-10-01T10:53:20.463Z,16.25
2022-10-01T10:54:20.593Z,16.05
2022-10-01T10:55:20.713Z,15.85
2022-10-01T10:56:20.865Z,15.63
2022-10-01T10:57:20.922Z,15.39
2022-10-01T10:58:21.012Z,15.22
2022-10-01T10:59:21.133Z,15.14
2022-10-01T11:00:21.232Z,15.13
2022-10-01T11:01:21.398Z,15.14
2022-10-01T11:02:21.499Z,15.15
2022-10-01T11:03:21.565Z,15.15
2022-10-01T11:04:21.720Z,15.20
2022-10-01T11:05:21.846Z,15.29
2022-10-01T11:06:21.973Z,15.40
2022-10-01T11:07:22.068Z,15.54
2022-10-01T11:08:22.208Z,15.66
2022-10-01T11:09:22.293Z,15.72
2022-10-01T11:10:22.409Z,15.76
2022-10-01T11:11:22.554Z,15.82
2022-10-01T11:12:22.641Z,15.89
2022-10-01T11:13:22.784Z,15.96
2022-10-01T11:14:23.969Z,16.01
2022-10-01T11:15:23.050Z,16.05
2022-10-01T11:16:23.347Z,16.11
2022-10-01T11:17:23.372Z,16.16
2022-10-01T11:18:23.421Z,16.15
2022-10-01T11:19:23.530Z,16.13
2022-10-01T11:20:23.662Z,16.14
2022-10-01T11:21:23.791Z,16.22
2022-10-01T11:22:23.901Z,16.36
2022-10-01T11:23:24.038Z,16.51
2022-10-01T11:24:24.149Z,16.66
2022-10-01T11:25:24.250Z,16.79
2022-10-01T11:26:24.395Z,16.87
2022-10-01T11:27:24.502Z,16.96
2022-10-01T11:28:24.719Z,17.07
2022-10-01T11:29:24.748Z,17.18
2022-10-01T11:30:24.899Z,17.27
2022-10-01T11:31:25.067Z,17.29
2022-10-01T11:32:25.110Z,17.23
2022-10-01T11:33:25.209Z,17.14
2022-10-01T11:34:25.319Z,17.04
2022-10-01T11:35:25.448Z,16.99
2022-10-01T11:36:25.638Z,16.93
2022-10-01T11:37:25.718Z,16.84
2022-10-01T11:38:25.857Z,16.72
2022-10-01T11:39:25.995Z,16.62
2022-10-01T11:40:26.138Z,16.56
2022-10-01T11:41:26.257Z,16.50
2022-10-01T11:42:26.348Z,16.45
2022-10-01T11:43:26.517Z,16.39
2022-10-01T11:44:26.618Z,16.34
2022-10-01T11:45:26.718Z,16.30
2022-10-01T11:46:26.914Z,16.34
2022-10-01T11:47:26.989Z,16.42
2022-10-01T11:48:27.076Z,16.48
2022-10-01T11:49:27.225Z,16.52
2022-10-01T11:50:27.343Z,16.57
2022-10-01T11:51:27.465Z,16.57
2022-10-01T11:52:27.583Z,16.50
2022-10-01T11:53:27.725Z,16.44
2022-10-01T11:54:27.850Z,16.39
2022-10-01T11:55:27.945Z,16.36
2022-10-01T11:56:28.204Z,16.33
2022-10-01T11:57:28.175Z,16.32
2022-10-01T11:58:28.259Z,16.37
2022-10-01T11:59:28.395Z,16.48
2022-10-01T12:00:28.554Z,16.64
2022-10-01T12:01:28.700Z,16.82
2022-10-01T12:02:28.753Z,17.02
2022-10-01T12:03:28.898Z,17.19
2022-10-01T12:04:28.996Z,17.31
2022-10-01T12:05:29.148Z,17.37
2022-10-01T12:06:33.612Z,17.41
2022-10-01T12:07:29.313Z,17.45
2022-10-01T12:08:29.414Z,17.47
2022-10-01T12:09:29.533Z,17.50
2022-10-01T12:10:29.634Z,17.56
2022-10-01T12:11:29.803Z,17.59
2022-10-01T12:12:29.903Z,17.56
2022-10-01T12:13:30.003Z,17.47
2022-10-01T12:14:30.121Z,17.40
2022-10-01T12:15:30.232Z,17.36
2022-10-01T12:16:30.541Z,17.34
2022-10-01T12:17:30.502Z,17.35
2022-10-01T12:18:30.621Z,17.36
2022-10-01T12:19:30.711Z,17.33
2022-10-01T12:20:30.869Z,17.26
2022-10-01T12:21:30.990Z,17.18
2022-10-01T12:22:31.112Z,17.12
2022-10-01T12:23:31.204Z,17.08
2022-10-01T12:24:31.355Z,17.09
2022-10-01T12:25:31.460Z,17.17
2022-10-01T12:26:31.631Z,17.28
2022-10-01T12:27:31.654Z,17.36
2022-10-01T12:28:31.836Z,17.41
2022-10-01T12:29:31.920Z,17.47
2022-10-01T12:30:32.055Z,17.57
2022-10-01T12:31:32.351Z,17.69
2022-10-01T12:32:32.324Z,17.77
2022-10-01T12:33:32.459Z,17.82
2022-10-01T12:34:32.610Z,17.88
2022-10-01T12:35:32.729Z,17.90
2022-10-01T12:36:33.112Z,17.86
2022-10-01T12:37:32.956Z,17.83
2022-10-01T12:38:33.040Z,17.85
2022-10-01T12:39:33.178Z,17.89
2022-10-01T12:40:33.340Z,17.92
2022-10-01T12:41:33.498Z,17.94
2022-10-01T12:42:33.586Z,17.96
2022-10-01T12:43:33.747Z,17.99
2022-10-01T12:44:33.848Z,18.03
2022-10-01T12:45:33.948Z,18.05
2022-10-01T12:46:34.445Z,18.04
2022-10-01T12:47:34.226Z,18.01
2022-10-01T12:48:34.305Z,17.98
2022-10-01T12:49:34.485Z,17.92
2022-10-01T12:50:34.577Z,17.90
2022-10-01T12:51:34.746Z,17.97
2022-10-01T12:52:34.845Z,18.08
2022-10-01T12:53:35.006Z,18.13
2022-10-01T12:54:35.133Z,18.13
2022-10-01T12:55:35.218Z,18.11
2022-10-01T12:56:35.714Z,18.08
2022-10-01T12:57:35.496Z,18.04
2022-10-01T12:58:35.588Z,18.00
2022-10-01T12:59:35.748Z,18.03
2022-10-01T13:00:35.929Z,18.10